Terminal Aerodrome Forecast
Issued by NWS

Home | Current Version | Previous Version | Graphics & Text | Print | Product List | Glossary Off
Versions: 1 2 3 4 5 6 7 8 9 10 11 12 13 14 15 16 17 18 19 20 21 22 23 24 25 26 27 28

000
FTUS43 KDDC 050520
TAFHYS
TAF
KHYS 050520Z 0506/0606 15013KT P6SM SCT060 BKN250
     FM050800 16013KT P6SM VCTS BKN060CB
     FM051100 17013KT P6SM SCT060 BKN250
     FM051600 19018G27KT P6SM SCT250=

USA.gov is the U.S. government's official web portal to all federal, state and local government web resources and services.